createdAt,value
2022-10-12T00:05:06.525Z,13.07
2022-10-12T00:10:10.914Z,11.38
2022-10-12T00:15:17.330Z,12.57
2022-10-12T00:20:23.554Z,12.91
2022-10-12T00:25:29.616Z,12.86
2022-10-12T00:30:35.865Z,10.15
2022-10-12T00:35:42.063Z,12.15
2022-10-12T00:40:48.237Z,12.91
2022-10-12T00:45:54.308Z,10.73
2022-10-12T00:51:00.588Z,10.99
2022-10-12T00:56:09.476Z,12.44
2022-10-12T01:01:15.667Z,12.10
2022-10-12T01:06:21.714Z,12.72
2022-10-12T01:11:28.037Z,11.05
2022-10-12T01:16:34.107Z,11.78
2022-10-12T01:26:41.504Z,12.52
2022-10-12T01:31:48.056Z,12.02
2022-10-12T01:36:54.458Z,10.64
2022-10-12T01:42:00.704Z,10.87
2022-10-12T01:47:06.809Z,9.19
2022-10-12T01:52:13.341Z,12.02
2022-10-12T01:57:19.728Z,9.89
2022-10-12T02:02:26.010Z,12.26
2022-10-12T02:07:32.069Z,9.35
2022-10-12T02:12:38.559Z,8.20
2022-10-12T02:17:44.621Z,10.32
2022-10-12T02:22:50.953Z,14.40
2022-10-12T02:27:57.331Z,11.16
2022-10-12T02:33:03.615Z,8.84
2022-10-12T02:38:10.038Z,9.94
2022-10-12T02:43:17.050Z,9.39
2022-10-12T02:48:25.566Z,11.41
2022-10-12T02:53:31.779Z,10.42
2022-10-12T02:58:37.868Z,9.33
2022-10-12T03:03:44.056Z,11.45
2022-10-12T03:08:50.503Z,10.68
2022-10-12T03:13:57.051Z,8.25
2022-10-12T03:19:03.223Z,9.23
2022-10-12T03:24:09.706Z,12.11
2022-10-12T03:29:16.154Z,7.80
2022-10-12T03:34:22.635Z,9.73
2022-10-12T03:39:28.714Z,7.63
2022-10-12T03:44:34.897Z,7.33
2022-10-12T03:49:41.031Z,7.63
2022-10-12T03:54:47.208Z,8.93
2022-10-12T03:59:53.304Z,10.54
2022-10-12T04:04:59.831Z,7.34
2022-10-12T04:10:06.765Z,9.59
2022-10-12T04:15:12.967Z,9.92
2022-10-12T04:20:19.022Z,6.92
2022-10-12T04:25:29.966Z,9.57
2022-10-12T04:30:30.911Z,5.54
2022-10-12T04:35:37.216Z,9.07
2022-10-12T04:40:43.280Z,5.91
2022-10-12T04:45:49.459Z,7.42
2022-10-12T04:50:55.559Z,8.64
2022-10-12T04:56:01.845Z,8.08
2022-10-12T05:01:08.772Z,6.76
2022-10-12T05:06:15.230Z,8.22
2022-10-12T05:11:21.612Z,6.83
2022-10-12T05:16:27.898Z,7.73
2022-10-12T05:21:33.934Z,8.53
2022-10-12T05:26:40.139Z,6.92
2022-10-12T05:31:46.290Z,9.03
2022-10-12T05:36:52.843Z,7.25
2022-10-12T05:41:58.902Z,8.28
2022-10-12T05:47:05.098Z,7.24
2022-10-12T05:52:11.152Z,8.78
2022-10-12T05:57:17.336Z,9.48
2022-10-12T06:02:23.424Z,8.20
2022-10-12T06:07:29.642Z,9.10
2022-10-12T06:12:36.052Z,6.95
2022-10-12T06:17:41.507Z,7.12
2022-10-12T06:22:47.583Z,8.71
2022-10-12T06:27:53.794Z,7.03
2022-10-12T06:32:59.900Z,6.61
2022-10-12T06:38:06.435Z,8.67
2022-10-12T06:43:12.862Z,6.77
2022-10-12T06:48:19.148Z,7.68
2022-10-12T06:53:25.169Z,8.71
2022-10-12T06:58:31.878Z,7.80
2022-10-12T07:03:37.955Z,7.94
2022-10-12T07:08:44.122Z,10.13
2022-10-12T07:13:50.187Z,9.71
2022-10-12T07:18:56.357Z,12.28
2022-10-12T07:24:02.435Z,19.25
2022-10-12T07:29:08.699Z,16.39
2022-10-12T07:34:14.885Z,17.58
2022-10-12T07:39:21.061Z,16.72
2022-10-12T07:44:27.240Z,13.27
2022-10-12T07:49:33.436Z,17.35
2022-10-12T07:54:39.864Z,14.53
2022-10-12T07:59:46.041Z,14.81
2022-10-12T08:04:52.099Z,17.36
2022-10-12T08:09:58.248Z,16.09
2022-10-12T08:15:04.401Z,17.64
2022-10-12T08:20:10.589Z,16.30
2022-10-12T08:25:16.682Z,16.13
2022-10-12T08:30:22.986Z,15.53
2022-10-12T08:35:29.156Z,14.09
2022-10-12T08:40:35.330Z,13.40
2022-10-12T08:45:41.790Z,20.07
2022-10-12T08:50:47.995Z,14.99
2022-10-12T08:55:54.073Z,13.51
2022-10-12T09:01:00.368Z,14.26
2022-10-12T09:06:06.427Z,15.06
2022-10-12T09:11:12.636Z,18.28
2022-10-12T09:16:18.672Z,12.97
2022-10-12T09:21:25.688Z,12.78
2022-10-12T09:26:31.751Z,12.42
2022-10-12T09:31:37.926Z,10.71
2022-10-12T09:36:44.060Z,14.83
2022-10-12T09:41:50.447Z,10.29
2022-10-12T09:46:56.506Z,11.54
2022-10-12T09:52:02.677Z,13.23
2022-10-12T09:57:08.784Z,11.43
2022-10-12T10:02:15.114Z,9.97
2022-10-12T10:07:21.156Z,13.58
2022-10-12T10:12:27.679Z,11.97
2022-10-12T10:17:33.710Z,10.17
2022-10-12T10:22:39.894Z,8.24
2022-10-12T10:27:45.965Z,10.28
2022-10-12T10:32:52.154Z,8.67
2022-10-12T10:37:58.227Z,8.94
2022-10-12T10:43:04.384Z,8.73
2022-10-12T10:48:10.465Z,8.17
2022-10-12T10:53:16.671Z,7.48
2022-10-12T10:58:22.778Z,9.26
2022-10-12T11:03:28.905Z,11.07
2022-10-12T11:08:34.992Z,9.57
2022-10-12T11:13:41.235Z,10.60
2022-10-12T11:18:47.675Z,9.74
2022-10-12T11:23:53.857Z,7.04
2022-10-12T11:29:00.034Z,8.61
2022-10-12T11:34:10.041Z,7.13
2022-10-12T11:39:11.883Z,7.73
2022-10-12T11:44:18.041Z,7.40
2022-10-12T11:49:24.130Z,8.71
2022-10-12T11:54:30.323Z,8.11
2022-10-12T11:59:37.226Z,7.47
2022-10-12T12:04:44.211Z,6.74
2022-10-12T12:09:50.731Z,9.14
2022-10-12T12:14:54.894Z,6.77
2022-10-12T12:20:01.016Z,7.87
2022-10-12T12:25:07.170Z,7.39
2022-10-12T12:30:13.234Z,6.03
2022-10-12T12:35:19.411Z,8.06
2022-10-12T12:40:25.444Z,5.76
2022-10-12T12:45:31.653Z,7.90
2022-10-12T12:50:37.726Z,6.18
2022-10-12T12:55:44.020Z,6.84
2022-10-12T13:00:50.126Z,9.29
2022-10-12T13:05:56.294Z,7.49
2022-10-12T13:11:02.379Z,7.38
2022-10-12T13:16:08.557Z,6.25
2022-10-12T13:21:14.703Z,8.20
2022-10-12T13:26:20.886Z,7.75
2022-10-12T13:31:26.982Z,7.04
2022-10-12T13:36:33.792Z,7.30
2022-10-12T13:41:39.852Z,8.63
2022-10-12T13:46:46.880Z,7.26
2022-10-12T13:51:52.949Z,5.46
2022-10-12T13:56:59.108Z,6.62
2022-10-12T14:02:05.224Z,7.01
2022-10-12T14:07:27.186Z,9.03
2022-10-12T14:12:33.345Z,8.61
2022-10-12T14:17:39.540Z,8.47
2022-10-12T14:22:46.464Z,8.70
2022-10-12T14:27:53.681Z,5.87
2022-10-12T14:33:00.038Z,8.14
2022-10-12T14:38:05.974Z,6.79
2022-10-12T14:43:12.031Z,6.85
2022-10-12T14:48:18.207Z,9.34
2022-10-12T14:53:24.313Z,9.52
2022-10-12T14:58:30.486Z,8.71
2022-10-12T15:03:37.294Z,7.38
2022-10-12T15:08:43.789Z,12.82
2022-10-12T15:13:49.869Z,8.39
2022-10-12T15:18:56.431Z,7.77
2022-10-12T15:24:02.485Z,7.03
2022-10-12T15:29:08.682Z,6.07
2022-10-12T15:34:14.758Z,8.01
2022-10-12T15:39:21.310Z,7.82
2022-10-12T15:44:27.391Z,8.50
2022-10-12T15:45:41.929Z,7.08
2022-10-12T15:50:48.226Z,6.01
2022-10-12T15:55:54.275Z,9.18
2022-10-12T16:01:00.855Z,6.52
2022-10-12T16:06:06.978Z,6.45
2022-10-12T16:11:13.254Z,7.33
2022-10-12T16:16:19.450Z,5.93
2022-10-12T16:21:25.768Z,5.09
2022-10-12T16:26:31.896Z,9.85
2022-10-12T16:31:38.205Z,8.17
2022-10-12T16:36:44.197Z,8.89
2022-10-12T16:41:53.430Z,9.56
2022-10-12T16:46:59.488Z,7.42
2022-10-12T16:52:05.686Z,6.63
2022-10-12T16:57:11.765Z,8.55
2022-10-12T17:02:18.095Z,8.27
2022-10-12T17:07:24.146Z,8.42
2022-10-12T17:12:30.467Z,7.85
2022-10-12T17:17:36.571Z,8.68
2022-10-12T17:22:42.807Z,9.90
2022-10-12T17:27:48.946Z,13.78
2022-10-12T17:32:55.141Z,9.81
2022-10-12T17:38:01.189Z,10.69
2022-10-12T17:43:07.500Z,10.73
2022-10-12T17:48:13.581Z,8.34
2022-10-12T17:53:19.807Z,8.97
2022-10-12T17:58:25.833Z,11.97
2022-10-12T18:03:35.111Z,12.86
2022-10-12T18:08:41.192Z,16.10
2022-10-12T18:13:47.577Z,16.01
2022-10-12T18:18:54.021Z,13.54
2022-10-12T18:24:00.157Z,14.31
2022-10-12T18:29:06.330Z,16.79
2022-10-12T18:34:12.484Z,15.40
2022-10-12T18:39:18.533Z,19.26
2022-10-12T18:44:25.087Z,19.48
2022-10-12T18:49:31.204Z,17.91
2022-10-12T18:54:37.345Z,15.56
2022-10-12T18:59:43.420Z,18.69
2022-10-12T19:04:49.690Z,15.29
2022-10-12T19:09:56.285Z,17.32
2022-10-12T19:15:02.665Z,20.71
2022-10-12T19:20:08.701Z,19.51
2022-10-12T19:25:15.273Z,17.18
2022-10-12T19:30:21.409Z,20.34
2022-10-12T19:35:27.729Z,17.21
2022-10-12T19:40:34.616Z,20.23
2022-10-12T19:45:40.808Z,17.31
2022-10-12T19:50:46.997Z,16.94
2022-10-12T19:55:53.128Z,16.57
2022-10-12T20:00:59.312Z,19.93
2022-10-12T20:06:05.659Z,18.28
2022-10-12T20:11:16.977Z,14.97
2022-10-12T20:16:17.498Z,14.81
2022-10-12T20:21:23.522Z,15.87
2022-10-12T20:26:29.729Z,16.73
2022-10-12T20:31:35.847Z,14.23
2022-10-12T20:36:42.315Z,15.11
2022-10-12T20:41:48.740Z,15.88
2022-10-12T20:46:56.337Z,15.06
2022-10-12T20:52:02.449Z,14.23
2022-10-12T20:57:08.644Z,16.58
2022-10-12T21:02:14.747Z,13.58
2022-10-12T21:07:20.923Z,14.58
2022-10-12T21:12:27.039Z,13.11
2022-10-12T21:17:33.275Z,13.36
2022-10-12T21:22:39.328Z,14.69
2022-10-12T21:23:53.989Z,13.32
2022-10-12T21:29:00.186Z,13.53
2022-10-12T21:34:06.284Z,11.50
2022-10-12T21:39:12.807Z,13.77
2022-10-12T21:44:19.012Z,12.58
2022-10-12T21:49:25.112Z,11.43
2022-10-12T21:54:31.214Z,11.28
2022-10-12T21:59:37.610Z,9.96
2022-10-12T22:04:43.766Z,12.20
2022-10-12T22:09:49.880Z,10.45
2022-10-12T22:14:56.059Z,10.23
2022-10-12T22:20:02.512Z,11.95
2022-10-12T22:25:08.564Z,10.70
2022-10-12T22:30:14.881Z,11.07
2022-10-12T22:35:21.284Z,11.56
2022-10-12T22:40:27.584Z,10.94
2022-10-12T22:45:33.728Z,10.84
2022-10-12T22:50:39.899Z,11.31
2022-10-12T22:55:45.954Z,12.89
2022-10-12T23:00:52.430Z,8.95
2022-10-12T23:05:58.872Z,10.79
2022-10-12T23:11:05.422Z,10.34
2022-10-12T23:16:11.810Z,10.72
2022-10-12T23:21:18.156Z,12.18
2022-10-12T23:26:24.673Z,13.04
2022-10-12T23:31:31.168Z,13.81
2022-10-12T23:36:37.245Z,11.62
2022-10-12T23:42:42.081Z,13.96
2022-10-12T23:47:48.508Z,11.72
2022-10-12T23:52:54.732Z,11.84
2022-10-12T23:58:01.299Z,11.13
